Southbridge, MA (01550)

3:59 PM EDT on July 27, 2016 (GMT -0400)
Dennison Hill | | Change Station

Elev 784 ft 42.06 °N, 72.06 °W | Updated 27 seconds ago

Mostly Cloudy
Mostly Cloudy
91.2 °F
Feels Like 92 °F
N
4.5
Wind Variable Wind from West
Gusts 7.4 mph

Today
High -- | Low -- °F
--% Chance of Precip.
Yesterday
High -- | Low -- °F
Precip. -- in
Pressure 29.91 in
Visibility 10.0 miles
Clouds Mostly Cloudy 7500 ft
Heat Index 92 °F
Dew Point 62 °F
Humidity 38%
Rainfall 0.00 in
Snow Depth Not available.
5:36 AM 8:11 PM
Last Quarter, 40% visible
METAR KORH 271954Z 29004KT 10SM BKN075 29/12 A2992 RMK AO2 SLP127 T02940122
Pressure 29.91 in
Visibility 10.0 miles
Clouds Mostly Cloudy 7500 ft
Heat Index 92 °F
Dew Point 62 °F
Humidity 38%
Rainfall 0.00 in
Snow Depth Not available.
5:36 AM 8:11 PM
Last Quarter, 40% visible
METAR KORH 271954Z 29004KT 10SM BKN075 29/12 A2992 RMK AO2 SLP127 T02940122

10-Day Weather Forecast

Almanac

Astronomy

Jul. 27, 2016 Rise Set
Actual Time
Civil Twilight
Nautical Twilight
Astronomical Twilight
Moon
Length of Visible Light
Length of Day
Tomorrow will be .
, % of the Moon is Illuminated

Today's Extremes

State Highs State Lows

Community

WunderPhotos

Upload Photos

1,927,920 photos uploaded!

WunderBlog® & News

Nearby

Air Quality

  Air Quality AQ Index Pollutant
Not available.

Snow Depth

Station Depth Elevation

Earthquake Activity

City Distance Mag. Time & Date
Minimum magnitude displayed is 2.5.

Coastal Water Temperatures

Place Temperature

Stations

Nearby Weather Stations

Station Location Temp. Windchill Dew Point Humidity Wind Precip. Elev Updated Type
                   

Watches & Warnings

There are currently no watches in effect.